Time;durP1;ratioP1;P1;durP2;ratioP2;P2;SDS_P1;SDS_P2;PMS_P1;PMS_P2;Temp;Humidity;BMP_temperature;BMP_pressure;BME280_temperature;BME280_humidity;BME280_pressure;Samples;Min_cycle;Max_cycle;Signal;HPM_P1;HPM_P2
2023/09/08 00:00:42;;;;;;;13.23;9.85;;;18.60;88.70;;;;;;5015778;28;20037;-78
2023/09/08 00:03:08;;;;;;;14.20;9.77;;;18.60;88.30;;;;;;5032850;28;20478;-76
2023/09/08 00:05:33;;;;;;;13.48;9.35;;;18.60;88.40;;;;;;5035544;28;20835;-77
2023/09/08 00:07:59;;;;;;;10.38;9.02;;;18.60;88.60;;;;;;5035084;28;20064;-78
2023/09/08 00:10:25;;;;;;;11.88;10.00;;;18.60;88.70;;;;;;5018221;28;20084;-79
2023/09/08 00:12:51;;;;;;;12.05;9.88;;;18.50;88.80;;;;;;5037172;28;20557;-80
2023/09/08 00:15:17;;;;;;;11.20;9.65;;;18.50;89.00;;;;;;5051996;28;20689;-76
2023/09/08 00:17:42;;;;;;;13.73;9.85;;;18.50;89.30;;;;;;5034648;28;20690;-77
2023/09/08 00:20:08;;;;;;;11.27;9.65;;;18.20;90.00;;;;;;5018003;28;20033;-78
2023/09/08 00:22:35;;;;;;;12.18;10.02;;;18.50;89.70;;;;;;5035508;28;20078;-76
2023/09/08 00:25:00;;;;;;;15.82;10.43;;;18.50;90.00;;;;;;5028835;28;20075;-75
2023/09/08 00:27:26;;;;;;;12.23;10.23;;;18.40;90.00;;;;;;5048678;28;20558;-75
2023/09/08 00:29:52;;;;;;;10.68;9.40;;;18.40;90.00;;;;;;5032715;28;20053;-74
2023/09/08 00:32:18;;;;;;;11.88;9.55;;;18.50;90.20;;;;;;5003657;28;20072;-74
2023/09/08 00:34:44;;;;;;;12.13;10.32;;;18.30;90.20;;;;;;5033304;28;20067;-75
2023/09/08 00:37:09;;;;;;;11.80;9.85;;;18.30;90.30;;;;;;5035445;28;20609;-74
2023/09/08 00:39:36;;;;;;;13.20;10.35;;;18.20;90.30;;;;;;5034099;28;21168;-76
2023/09/08 00:42:02;;;;;;;10.68;9.48;;;18.20;90.40;;;;;;5037624;28;20045;-76
2023/09/08 00:44:28;;;;;;;13.75;10.50;;;18.20;90.40;;;;;;5033555;28;20158;-72
2023/09/08 00:46:54;;;;;;;12.48;10.48;;;18.10;90.50;;;;;;5033349;28;20045;-76
2023/09/08 00:49:20;;;;;;;12.00;10.25;;;18.10;90.60;;;;;;5018800;28;20493;-75
2023/09/08 00:51:46;;;;;;;12.80;9.82;;;18.10;90.70;;;;;;5033448;28;20121;-75
2023/09/08 00:54:12;;;;;;;13.38;10.38;;;18.10;90.80;;;;;;5019651;28;20040;-76
2023/09/08 00:56:38;;;;;;;12.25;10.30;;;18.10;91.00;;;;;;5016610;28;20086;-72
2023/09/08 00:59:05;;;;;;;11.77;10.63;;;18.10;91.10;;;;;;5031978;28;20811;-74
2023/09/08 01:01:31;;;;;;;12.02;10.43;;;18.00;91.10;;;;;;5035609;28;20040;-80
2023/09/08 01:03:57;;;;;;;12.25;9.85;;;18.00;91.20;;;;;;5012017;28;20591;-80
2023/09/08 01:06:24;;;;;;;12.02;10.73;;;17.90;91.40;;;;;;5035048;28;20052;-75
2023/09/08 01:08:50;;;;;;;13.05;10.68;;;17.90;91.50;;;;;;5034559;28;20384;-81
2023/09/08 01:11:19;;;;;;;12.15;10.48;;;17.90;91.60;;;;;;4997504;28;20075;-81
2023/09/08 01:13:45;;;;;;;12.15;10.85;;;17.80;91.70;;;;;;5031750;28;20062;-79
2023/09/08 01:16:11;;;;;;;15.65;10.75;;;17.80;91.80;;;;;;5010683;28;20378;-79
2023/09/08 01:18:37;;;;;;;14.02;10.85;;;17.80;91.90;;;;;;5033200;28;20445;-78
2023/09/08 01:21:23;;;;;;;13.45;10.50;;;17.70;91.90;;;;;;4996021;28;20376;-82
2023/09/08 01:24:11;;;;;;;12.77;10.80;;;17.70;92.00;;;;;;5034850;28;20079;-73
2023/09/08 01:26:41;;;;;;;13.57;11.00;;;17.60;92.00;;;;;;5033190;28;20048;-77
2023/09/08 01:29:09;;;;;;;12.80;10.02;;;17.60;92.10;;;;;;5035381;28;20055;-81
2023/09/08 01:31:35;;;;;;;12.07;10.77;;;17.60;92.10;;;;;;5032749;28;20048;-82
2023/09/08 01:34:06;;;;;;;13.23;11.20;;;17.40;92.10;;;;;;5025812;28;20481;-79
2023/09/08 01:36:35;;;;;;;12.85;10.32;;;17.50;92.30;;;;;;5032431;28;20070;-78
2023/09/08 01:39:02;;;;;;;14.18;11.30;;;17.60;92.40;;;;;;5034696;28;22920;-75
2023/09/08 01:41:30;;;;;;;14.35;11.30;;;17.50;92.40;;;;;;5029939;28;20052;-78
2023/09/08 01:43:55;;;;;;;13.40;11.65;;;17.50;92.50;;;;;;5035515;28;20283;-78
2023/09/08 01:46:21;;;;;;;12.57;11.30;;;17.50;92.60;;;;;;5017441;28;20045;-83
2023/09/08 01:48:47;;;;;;;13.63;11.82;;;17.40;92.60;;;;;;5031970;28;20090;-77
2023/09/08 01:51:13;;;;;;;12.60;11.18;;;17.40;92.70;;;;;;5032011;28;20044;-82
2023/09/08 01:53:38;;;;;;;14.98;11.63;;;17.40;92.80;;;;;;5032801;28;20752;-80
2023/09/08 01:56:04;;;;;;;12.45;11.15;;;17.40;92.80;;;;;;5053057;28;20099;-77
2023/09/08 01:58:32;;;;;;;13.50;12.05;;;17.40;92.90;;;;;;5037416;28;20669;-75
2023/09/08 02:01:03;;;;;;;14.48;11.80;;;18.00;93.40;;;;;;5049645;28;20517;-81
2023/09/08 02:03:28;;;;;;;13.98;12.48;;;17.40;93.10;;;;;;5031808;28;20111;-84
2023/09/08 02:05:54;;;;;;;12.98;11.40;;;17.30;93.10;;;;;;5031138;28;21122;-77
2023/09/08 02:08:20;;;;;;;13.45;12.05;;;17.30;93.10;;;;;;4996478;28;20040;-75
2023/09/08 02:10:48;;;;;;;16.00;12.55;;;17.30;93.20;;;;;;5015562;28;20049;-76
2023/09/08 02:13:14;;;;;;;12.52;11.23;;;17.30;93.30;;;;;;5030955;28;22273;-77
2023/09/08 02:15:40;;;;;;;14.18;12.38;;;17.20;93.30;;;;;;4992298;28;20057;-77
2023/09/08 02:18:07;;;;;;;15.70;11.80;;;17.20;93.40;;;;;;5019975;28;20579;-83
2023/09/08 02:20:33;;;;;;;13.65;11.75;;;17.20;93.50;;;;;;5033146;28;20128;-85
2023/09/08 02:23:05;;;;;;;14.05;12.23;;;17.20;93.60;;;;;;5031926;28;20242;-82
2023/09/08 02:25:30;;;;;;;12.85;11.05;;;17.10;93.70;;;;;;5033955;28;20052;-80
2023/09/08 02:27:56;;;;;;;14.18;11.60;;;17.10;93.70;;;;;;5034060;28;20052;-81
2023/09/08 02:30:22;;;;;;;13.55;12.10;;;17.10;93.80;;;;;;5028129;28;20230;-84
2023/09/08 02:32:48;;;;;;;14.13;12.23;;;17.00;93.80;;;;;;5032143;28;20052;-79
2023/09/08 02:35:14;;;;;;;12.48;11.20;;;17.00;93.90;;;;;;5007745;28;20040;-80
2023/09/08 02:37:40;;;;;;;15.48;12.63;;;17.00;94.30;;;;;;5013332;28;20035;-85
2023/09/08 02:40:07;;;;;;;13.25;11.85;;;17.00;94.20;;;;;;5027385;28;20124;-74
2023/09/08 02:42:33;;;;;;;13.27;11.95;;;16.90;94.30;;;;;;5034856;28;20676;-74
2023/09/08 02:44:58;;;;;;;15.20;12.38;;;16.90;94.30;;;;;;5027770;28;20048;-77
2023/09/08 02:47:24;;;;;;;15.32;12.10;;;16.90;94.40;;;;;;5031266;28;20467;-73
2023/09/08 02:49:50;;;;;;;13.55;12.00;;;16.90;94.40;;;;;;5033212;28;20134;-77
2023/09/08 02:52:16;;;;;;;13.02;10.88;;;16.80;94.40;;;;;;5033022;28;20056;-75
2023/09/08 02:54:41;;;;;;;13.35;10.90;;;16.80;94.50;;;;;;5033373;28;20163;-78
2023/09/08 02:57:07;;;;;;;16.52;11.43;;;16.80;94.60;;;;;;5018369;28;20182;-76
2023/09/08 02:59:33;;;;;;;12.90;11.55;;;16.80;94.70;;;;;;5019701;28;20090;-82
2023/09/08 03:02:00;;;;;;;13.90;11.85;;;16.70;94.70;;;;;;5020429;28;20549;-82
2023/09/08 03:04:25;;;;;;;14.40;12.25;;;16.70;94.80;;;;;;5019008;28;20068;-80
2023/09/08 03:06:51;;;;;;;14.95;13.00;;;16.70;94.80;;;;;;5045732;28;20151;-76
2023/09/08 03:09:17;;;;;;;15.27;12.00;;;16.70;94.80;;;;;;5052428;28;20052;-75
2023/09/08 03:11:43;;;;;;;14.48;11.82;;;16.60;94.80;;;;;;5052283;28;20097;-77
2023/09/08 03:14:08;;;;;;;13.35;11.95;;;16.50;94.80;;;;;;5034584;28;20367;-74
2023/09/08 03:16:34;;;;;;;13.88;11.70;;;16.50;94.90;;;;;;5051093;28;20055;-81
2023/09/08 03:19:00;;;;;;;12.82;11.35;;;16.50;95.00;;;;;;5012250;28;20483;-83
2023/09/08 03:21:26;;;;;;;14.50;12.15;;;16.40;95.00;;;;;;5033909;28;20046;-81
2023/09/08 03:23:52;;;;;;;15.27;12.23;;;16.40;95.00;;;;;;5026359;28;20044;-79
2023/09/08 03:26:17;;;;;;;15.57;12.55;;;16.40;95.00;;;;;;5024165;28;21142;-80
2023/09/08 03:28:43;;;;;;;13.43;12.05;;;16.40;95.10;;;;;;5030649;28;20044;-80
2023/09/08 03:31:09;;;;;;;15.00;12.45;;;16.30;95.10;;;;;;5034179;28;20062;-81
2023/09/08 03:33:35;;;;;;;17.08;12.65;;;16.30;95.20;;;;;;4996898;28;20079;-81
2023/09/08 03:36:01;;;;;;;15.02;12.40;;;16.30;95.60;;;;;;5027980;28;20436;-80
2023/09/08 03:38:27;;;;;;;14.63;13.18;;;16.30;95.40;;;;;;5016255;28;20053;-80
2023/09/08 03:40:53;;;;;;;17.10;13.05;;;16.30;95.50;;;;;;5006610;28;20051;-80
2023/09/08 03:43:18;;;;;;;14.27;12.77;;;16.30;95.50;;;;;;5003627;28;20048;-78
2023/09/08 03:45:44;;;;;;;16.95;13.25;;;16.30;95.60;;;;;;5003576;28;20060;-79
2023/09/08 03:48:10;;;;;;;15.15;13.55;;;16.20;95.60;;;;;;5017407;28;20083;-78
2023/09/08 03:50:36;;;;;;;15.52;13.32;;;16.20;95.70;;;;;;5051715;28;20160;-83
2023/09/08 03:53:02;;;;;;;14.88;13.30;;;16.20;95.70;;;;;;5031339;28;20604;-84
2023/09/08 03:55:28;;;;;;;16.50;12.93;;;16.20;95.70;;;;;;5028558;28;20045;-79
2023/09/08 03:57:53;;;;;;;15.00;13.25;;;16.20;95.80;;;;;;5006245;28;20597;-82
2023/09/08 04:00:21;;;;;;;15.13;12.77;;;16.20;95.80;;;;;;5046497;28;20037;-79
2023/09/08 04:02:51;;;;;;;15.15;13.50;;;16.10;95.80;;;;;;5013223;28;20045;-79
2023/09/08 04:05:17;;;;;;;15.15;13.48;;;16.10;95.80;;;;;;5012039;28;20187;-80
2023/09/08 04:07:47;;;;;;;16.27;13.75;;;16.10;95.90;;;;;;5051242;28;20053;-81
2023/09/08 04:10:13;;;;;;;15.88;13.32;;;16.10;95.90;;;;;;5012149;28;20056;-79
2023/09/08 04:12:40;;;;;;;15.98;14.38;;;16.10;96.00;;;;;;5009700;28;20059;-78
2023/09/08 04:15:06;;;;;;;18.23;13.93;;;16.00;96.10;;;;;;5030368;28;20479;-83
2023/09/08 04:17:32;;;;;;;18.85;13.52;;;16.00;96.20;;;;;;5033175;28;20040;-83
2023/09/08 04:19:58;;;;;;;15.50;13.90;;;16.00;96.40;;;;;;5015152;28;20210;-79
2023/09/08 04:22:23;;;;;;;14.93;12.95;;;15.90;96.40;;;;;;5025753;28;22278;-80
2023/09/08 04:24:49;;;;;;;21.35;13.75;;;15.90;96.50;;;;;;5015837;28;20048;-81
2023/09/08 04:27:15;;;;;;;16.02;13.35;;;15.90;96.60;;;;;;5024559;28;20051;-80
2023/09/08 04:29:41;;;;;;;17.52;14.82;;;15.80;96.60;;;;;;4998417;28;20063;-81
2023/09/08 04:32:08;;;;;;;17.75;13.80;;;15.80;96.70;;;;;;5019176;28;20101;-81
2023/09/08 04:34:39;;;;;;;16.70;14.70;;;15.80;96.80;;;;;;5031002;28;20047;-81
2023/09/08 04:37:05;;;;;;;17.13;13.15;;;15.70;96.90;;;;;;5027433;28;20044;-81
2023/09/08 04:39:31;;;;;;;15.00;13.30;;;15.70;96.90;;;;;;5029211;28;20072;-81
2023/09/08 04:41:57;;;;;;;15.50;13.90;;;15.70;96.90;;;;;;5007410;28;20048;-80
2023/09/08 04:44:23;;;;;;;15.70;13.93;;;15.70;97.00;;;;;;5023251;28;20494;-81
2023/09/08 04:46:49;;;;;;;16.23;13.27;;;15.70;97.10;;;;;;5011145;28;20064;-80
2023/09/08 04:49:15;;;;;;;16.92;14.30;;;15.70;97.10;;;;;;5049807;28;20052;-81
2023/09/08 04:51:41;;;;;;;15.93;14.23;;;15.70;97.20;;;;;;5028349;28;20057;-79
2023/09/08 04:54:06;;;;;;;15.23;13.63;;;15.70;97.30;;;;;;5027016;28;20044;-82
2023/09/08 04:56:32;;;;;;;17.40;14.25;;;15.60;97.30;;;;;;5012660;28;20045;-83
2023/09/08 04:59:00;;;;;;;15.15;13.38;;;15.60;97.30;;;;;;4976063;28;20048;-78
2023/09/08 05:01:27;;;;;;;15.18;13.57;;;15.60;97.40;;;;;;4993481;28;21671;-80
2023/09/08 05:03:53;;;;;;;15.48;13.68;;;15.60;97.40;;;;;;5014717;28;20044;-81
2023/09/08 05:06:19;;;;;;;16.73;14.07;;;16.10;97.60;;;;;;5010882;28;20770;-80
2023/09/08 05:08:44;;;;;;;16.58;14.77;;;15.60;97.50;;;;;;5032372;28;20051;-78
2023/09/08 05:11:10;;;;;;;18.13;14.20;;;15.60;97.60;;;;;;5035976;28;20036;-80
2023/09/08 05:13:36;;;;;;;15.95;13.85;;;15.50;97.60;;;;;;5035611;28;20502;-81
2023/09/08 05:16:10;;;;;;;16.85;14.80;;;15.50;97.70;;;;;;5046722;28;20040;-77
2023/09/08 05:18:38;;;;;;;17.40;14.00;;;15.50;97.70;;;;;;5009841;28;20048;-78
2023/09/08 05:21:04;;;;;;;17.67;14.00;;;15.50;97.70;;;;;;5030157;28;20044;-82
2023/09/08 05:23:30;;;;;;;16.20;13.95;;;15.50;97.80;;;;;;5035720;28;20387;-79
2023/09/08 05:25:55;;;;;;;15.65;13.95;;;15.50;97.70;;;;;;5007953;28;20473;-79
2023/09/08 05:28:22;;;;;;;18.55;14.15;;;15.60;97.70;;;;;;5015986;28;20067;-80
2023/09/08 05:30:50;;;;;;;18.90;14.48;;;15.60;97.80;;;;;;5030189;28;20671;-80
2023/09/08 05:33:16;;;;;;;18.55;14.27;;;15.60;97.80;;;;;;5014066;28;20052;-84
2023/09/08 05:35:42;;;;;;;16.25;13.75;;;15.60;97.80;;;;;;5020497;28;21812;-75
2023/09/08 05:38:08;;;;;;;17.20;14.27;;;15.60;97.80;;;;;;5033415;28;20059;-82
2023/09/08 05:40:35;;;;;;;17.90;13.02;;;15.60;97.80;;;;;;4999543;28;20047;-82
2023/09/08 05:43:00;;;;;;;17.23;14.18;;;15.70;97.90;;;;;;5029922;28;20534;-83
2023/09/08 05:45:27;;;;;;;20.15;13.98;;;15.70;97.90;;;;;;4989671;28;20056;-79
2023/09/08 05:47:52;;;;;;;17.15;13.77;;;15.70;97.90;;;;;;5001048;28;20059;-79
2023/09/08 05:50:19;;;;;;;15.13;13.55;;;15.70;97.90;;;;;;4996546;28;20045;-81
2023/09/08 05:52:45;;;;;;;16.88;13.80;;;15.80;97.90;;;;;;5001918;28;20086;-80
2023/09/08 05:55:10;;;;;;;14.98;13.02;;;15.80;97.90;;;;;;5002401;28;20076;-79
2023/09/08 05:57:36;;;;;;;17.85;12.57;;;15.80;97.80;;;;;;4967012;28;20387;-81
2023/09/08 06:00:03;;;;;;;16.98;13.43;;;15.80;97.80;;;;;;4999959;28;20137;-78
2023/09/08 06:02:29;;;;;;;17.30;13.15;;;15.90;97.90;;;;;;4999232;28;20044;-80
2023/09/08 06:04:56;;;;;;;15.30;13.60;;;15.90;97.90;;;;;;5034716;28;20060;-80
2023/09/08 06:07:22;;;;;;;17.20;13.50;;;16.30;98.10;;;;;;5033967;28;20044;-79
2023/09/08 06:09:48;;;;;;;15.18;13.18;;;15.90;97.90;;;;;;5032201;28;20048;-81
2023/09/08 06:12:13;;;;;;;15.35;13.55;;;16.00;98.00;;;;;;5036113;28;20735;-81
2023/09/08 06:14:39;;;;;;;16.73;14.25;;;16.00;98.00;;;;;;5018385;28;20379;-81
2023/09/08 06:17:05;;;;;;;16.02;14.27;;;16.10;98.10;;;;;;5010690;28;20654;-80
2023/09/08 06:19:31;;;;;;;15.27;13.68;;;16.10;98.10;;;;;;5047296;28;20056;-79
2023/09/08 06:21:57;;;;;;;16.70;13.82;;;16.10;98.20;;;;;;5030944;28;20057;-80
2023/09/08 06:24:22;;;;;;;18.85;14.90;;;16.20;98.30;;;;;;5033620;28;20055;-82
2023/09/08 06:26:49;;;;;;;15.07;13.25;;;16.20;98.30;;;;;;5015552;28;20071;-80
2023/09/08 06:29:15;;;;;;;16.98;13.98;;;16.30;98.40;;;;;;5015267;28;20060;-81
2023/09/08 06:31:41;;;;;;;16.85;14.18;;;16.40;98.40;;;;;;5002581;28;20059;-80
2023/09/08 06:34:07;;;;;;;17.17;14.35;;;16.50;98.50;;;;;;5019761;28;20152;-80
2023/09/08 06:36:33;;;;;;;17.00;13.32;;;16.50;98.60;;;;;;5013127;28;20064;-78
2023/09/08 06:38:59;;;;;;;18.00;13.68;;;16.60;98.70;;;;;;5036508;28;20070;-81
2023/09/08 06:41:27;;;;;;;17.23;14.93;;;16.70;98.60;;;;;;5004095;28;20511;-80
2023/09/08 06:43:52;;;;;;;14.55;13.00;;;16.80;98.70;;;;;;5020571;28;20040;-79
2023/09/08 06:46:18;;;;;;;19.13;14.15;;;16.90;98.80;;;;;;4990080;28;20047;-79
2023/09/08 06:48:44;;;;;;;16.63;14.35;;;17.00;98.80;;;;;;5004463;28;20079;-79
2023/09/08 06:51:10;;;;;;;18.00;13.90;;;17.10;98.70;;;;;;4989329;28;20056;-83
2023/09/08 06:53:36;;;;;;;15.02;13.10;;;17.20;98.90;;;;;;5050047;28;20056;-82
2023/09/08 06:56:02;;;;;;;16.85;14.13;;;17.30;98.80;;;;;;5013046;28;20060;-79
2023/09/08 06:58:28;;;;;;;15.63;13.93;;;17.40;98.90;;;;;;5006412;28;20044;-80
2023/09/08 07:00:54;;;;;;;17.00;14.07;;;17.50;98.80;;;;;;5034474;28;20051;-84
2023/09/08 07:03:24;;;;;;;16.10;13.30;;;17.70;98.90;;;;;;5037817;28;20475;-82
2023/09/08 07:05:50;;;;;;;16.73;14.20;;;17.80;98.90;;;;;;5035185;28;20048;-80
2023/09/08 07:08:17;;;;;;;17.08;13.57;;;18.00;98.90;;;;;;4983907;28;20555;-81
2023/09/08 07:10:44;;;;;;;20.00;14.95;;;18.10;98.90;;;;;;4992626;28;20343;-80
2023/09/08 07:13:10;;;;;;;16.58;13.90;;;18.30;98.80;;;;;;5032137;28;20075;-81
2023/09/08 07:15:36;;;;;;;16.83;14.43;;;18.50;98.90;;;;;;5033341;28;20052;-82
2023/09/08 07:18:03;;;;;;;15.25;13.65;;;18.70;98.70;;;;;;5039263;28;20482;-85
2023/09/08 07:20:28;;;;;;;16.23;13.35;;;18.90;98.50;;;;;;5034710;28;20140;-81
2023/09/08 07:22:54;;;;;;;16.00;14.00;;;19.10;98.30;;;;;;4971054;28;20045;-83
2023/09/08 07:25:20;;;;;;;16.02;13.43;;;19.30;98.10;;;;;;4999438;28;20040;-84
2023/09/08 07:27:46;;;;;;;16.92;13.95;;;19.50;97.80;;;;;;4994708;28;20379;-84
2023/09/08 07:30:12;;;;;;;14.40;12.90;;;19.70;97.60;;;;;;4992923;28;20056;-78
2023/09/08 07:32:39;;;;;;;15.15;12.88;;;19.90;97.30;;;;;;4981405;28;20075;-78
2023/09/08 07:35:05;;;;;;;14.07;12.35;;;20.10;97.00;;;;;;4998238;28;20068;-79
2023/09/08 07:37:31;;;;;;;16.42;12.15;;;20.30;96.50;;;;;;5034678;28;20042;-85
2023/09/08 07:39:56;;;;;;;13.20;11.80;;;20.60;96.20;;;;;;5032462;28;20418;-77
2023/09/08 07:42:23;;;;;;;13.05;11.75;;;20.80;95.70;;;;;;5029679;28;20048;-77
2023/09/08 07:44:49;;;;;;;14.68;11.50;;;21.00;95.10;;;;;;4991130;28;20139;-76
2023/09/08 07:47:14;;;;;;;15.70;11.55;;;21.20;94.70;;;;;;4974214;28;20044;-75
2023/09/08 07:49:47;;;;;;;12.98;11.10;;;21.40;94.20;;;;;;4974247;28;21523;-75
2023/09/08 07:52:13;;;;;;;14.43;11.45;;;21.70;93.80;;;;;;4985281;28;20060;-75
2023/09/08 07:54:39;;;;;;;12.52;11.27;;;21.90;93.10;;;;;;4969648;28;20133;-77
2023/09/08 07:57:04;;;;;;;13.85;11.10;;;22.20;92.50;;;;;;4987959;28;22376;-75
2023/09/08 07:59:30;;;;;;;13.07;10.40;;;22.00;91.50;;;;;;5003098;28;20049;-76
2023/09/08 08:01:56;;;;;;;11.48;10.27;;;22.50;90.70;;;;;;5006769;28;20079;-77
2023/09/08 08:04:22;;;;;;;11.23;9.98;;;22.80;89.90;;;;;;5002479;28;20147;-78
2023/09/08 08:06:49;;;;;;;11.75;10.55;;;23.00;88.30;;;;;;5009713;28;20502;-75
2023/09/08 08:09:15;;;;;;;12.40;9.93;;;23.20;86.40;;;;;;5010722;28;20041;-77
2023/09/08 08:11:41;;;;;;;13.63;10.05;;;23.30;84.60;;;;;;4998132;28;20043;-78
2023/09/08 08:14:07;;;;;;;15.60;10.85;;;23.50;83.10;;;;;;5023828;28;20239;-77
2023/09/08 08:16:33;;;;;;;13.20;9.15;;;23.70;81.10;;;;;;5032029;28;22079;-76
2023/09/08 08:18:59;;;;;;;15.88;10.05;;;23.80;79.30;;;;;;5032181;28;20048;-77
2023/09/08 08:21:24;;;;;;;11.70;9.10;;;24.00;77.70;;;;;;5034509;28;20094;-79
2023/09/08 08:23:51;;;;;;;10.40;9.30;;;24.20;76.10;;;;;;5008400;28;20044;-76
2023/09/08 08:26:18;;;;;;;12.70;9.60;;;24.50;74.20;;;;;;5030786;28;20654;-76
2023/09/08 08:28:47;;;;;;;11.68;8.98;;;24.60;72.10;;;;;;5025685;28;20044;-77
2023/09/08 08:31:13;;;;;;;11.55;9.10;;;24.80;69.50;;;;;;5041792;28;20075;-76
2023/09/08 08:33:39;;;;;;;12.63;10.27;;;24.90;67.60;;;;;;5028804;28;20216;-78
2023/09/08 08:36:05;;;;;;;11.13;8.90;;;25.10;65.30;;;;;;4989819;28;20048;-82
2023/09/08 08:38:31;;;;;;;11.43;9.40;;;25.20;64.40;;;;;;5010855;28;20044;-83
2023/09/08 08:41:03;;;;;;;11.50;9.52;;;25.30;62.60;;;;;;5010372;28;20040;-80
2023/09/08 08:43:30;;;;;;;11.07;9.50;;;25.50;60.00;;;;;;5024552;28;20044;-74
2023/09/08 08:45:58;;;;;;;10.85;9.20;;;25.60;59.50;;;;;;5027720;28;20049;-74
2023/09/08 08:48:27;;;;;;;9.27;8.38;;;25.80;58.10;;;;;;5034353;28;20052;-75
2023/09/08 08:50:58;;;;;;;12.23;8.43;;;25.90;55.70;;;;;;5049429;28;20634;-74
2023/09/08 08:53:25;;;;;;;12.18;8.63;;;26.10;52.50;;;;;;5014205;28;20071;-74
2023/09/08 08:55:54;;;;;;;9.65;8.75;;;26.30;47.70;;;;;;5008840;28;20052;-75
2023/09/08 08:58:24;;;;;;;10.88;9.77;;;26.40;44.10;;;;;;5027052;28;20205;-74
2023/09/08 09:00:53;;;;;;;10.20;9.13;;;26.50;41.60;;;;;;5011692;28;20052;-75
2023/09/08 09:03:20;;;;;;;11.85;9.15;;;26.70;40.00;;;;;;5003764;28;20502;-75
2023/09/08 09:05:46;;;;;;;10.20;9.10;;;26.90;37.20;;;;;;4993460;28;20056;-74
2023/09/08 09:08:13;;;;;;;10.20;8.52;;;27.10;34.40;;;;;;5028937;28;20049;-74
2023/09/08 09:10:38;;;;;;;10.60;9.50;;;27.20;31.90;;;;;;5003446;28;20049;-75
2023/09/08 09:13:05;;;;;;;10.88;9.77;;;27.40;26.70;;;;;;5012388;28;20535;-74
2023/09/08 09:15:34;;;;;;;10.93;9.70;;;27.30;24.70;;;;;;5012531;28;20400;-74
2023/09/08 09:18:05;;;;;;;10.50;8.90;;;27.70;20.00;;;;;;5011629;28;22763;-74
2023/09/08 09:20:32;;;;;;;10.43;9.38;;;27.90;16.10;;;;;;5028331;28;20955;-75
2023/09/08 09:22:58;;;;;;;13.07;9.05;;;28.00;15.10;;;;;;5046936;28;20510;-74
2023/09/08 09:25:25;;;;;;;11.15;10.02;;;28.10;9.90;;;;;;5021265;28;20052;-75
2023/09/08 09:27:55;;;;;;;9.13;8.07;;;28.20;6.10;;;;;;5046336;28;20071;-75
2023/09/08 09:30:24;;;;;;;10.75;8.48;;;28.40;4.40;;;;;;5025991;28;20071;-75
2023/09/08 09:33:00;;;;;;;13.43;8.60;;;28.50;1.00;;;;;;5026216;28;20083;-75
2023/09/08 09:35:49;;;;;;;10.27;9.18;;;28.60;1.00;;;;;;5028447;28;20053;-75
2023/09/08 09:38:18;;;;;;;9.73;8.73;;;28.80;1.00;;;;;;5032191;28;20066;-75
2023/09/08 09:40:45;;;;;;;11.20;9.50;;;28.90;1.00;;;;;;5009141;28;20044;-75
2023/09/08 09:43:11;;;;;;;10.68;9.57;;;29.00;1.00;;;;;;5008454;28;20052;-75
2023/09/08 09:45:39;;;;;;;10.32;9.05;;;29.00;1.00;;;;;;5009043;28;20869;-75
2023/09/08 09:48:06;;;;;;;8.88;7.97;;;29.10;1.00;;;;;;5032574;28;20044;-75
2023/09/08 09:50:34;;;;;;;10.38;8.43;;;29.30;1.00;;;;;;5024182;28;20047;-75
2023/09/08 09:53:22;;;;;;;9.65;8.57;;;29.40;1.00;;;;;;5051440;28;20044;-75
2023/09/08 09:55:48;;;;;;;8.80;7.95;;;29.50;1.00;;;;;;5027831;28;20102;-75
2023/09/08 09:58:15;;;;;;;9.32;8.38;;;29.70;1.00;;;;;;5022886;28;20044;-75
2023/09/08 10:00:45;;;;;;;10.82;8.55;;;29.80;1.00;;;;;;5043688;28;20159;-75
2023/09/08 10:03:13;;;;;;;10.68;8.57;;;29.90;1.00;;;;;;5028429;28;20047;-75
2023/09/08 10:05:38;;;;;;;9.57;8.63;;;30.00;1.00;;;;;;5024968;28;20865;-76
2023/09/08 10:08:05;;;;;;;11.07;8.57;;;30.00;1.00;;;;;;5024796;28;20082;-75
2023/09/08 10:10:32;;;;;;;9.77;8.77;;;30.20;1.00;;;;;;5024743;28;20491;-76
2023/09/08 10:13:03;;;;;;;10.82;7.97;;;30.30;1.00;;;;;;5034380;28;20049;-75
2023/09/08 10:15:31;;;;;;;9.52;8.02;;;30.50;1.00;;;;;;5029622;28;20506;-75
2023/09/08 10:17:57;;;;;;;10.60;8.10;;;30.70;1.00;;;;;;5011711;28;20803;-75
2023/09/08 10:20:28;;;;;;;8.65;7.78;;;30.90;1.00;;;;;;5009875;28;20052;-76
2023/09/08 10:23:20;;;;;;;8.75;7.55;;;31.10;1.00;;;;;;5031439;28;20128;-76
2023/09/08 10:25:54;;;;;;;8.98;7.43;;;31.30;1.00;;;;;;5009525;28;20056;-75
2023/09/08 10:28:22;;;;;;;10.13;7.15;;;31.40;1.00;;;;;;5028404;28;20055;-76
2023/09/08 10:30:49;;;;;;;9.63;7.07;;;31.50;1.00;;;;;;5022922;28;20433;-76
2023/09/08 10:33:16;;;;;;;8.38;7.47;;;31.60;99.90;;;;;;5048950;28;20530;-76
2023/09/08 10:35:43;;;;;;;9.27;7.50;;;31.60;99.90;;;;;;5030868;28;20471;-76
2023/09/08 10:38:24;;;;;;;9.13;7.18;;;31.80;99.90;;;;;;5033070;28;20056;-76
2023/09/08 10:40:50;;;;;;;9.30;7.30;;;32.00;99.90;;;;;;5046368;28;20053;-76
2023/09/08 10:43:17;;;;;;;8.23;7.10;;;32.20;99.90;;;;;;5028531;28;20053;-76
2023/09/08 10:45:44;;;;;;;9.25;7.50;;;32.30;99.90;;;;;;5031751;28;20106;-75
2023/09/08 10:48:10;;;;;;;9.02;7.43;;;32.40;16.70;;;;;;5034984;28;20048;-76
2023/09/08 10:50:41;;;;;;;8.82;7.88;;;32.40;1.00;;;;;;5036146;28;20064;-75
2023/09/08 10:53:10;;;;;;;8.38;7.57;;;32.50;1.00;;;;;;5032524;28;20609;-75
2023/09/08 10:55:53;;;;;;;10.23;6.90;;;32.60;1.00;;;;;;5031768;28;20080;-76
2023/09/08 10:58:38;;;;;;;9.52;8.10;;;32.80;99.90;;;;;;5028629;28;20118;-76
2023/09/08 11:01:05;;;;;;;8.18;7.38;;;33.00;97.40;;;;;;5031687;28;20447;-77
2023/09/08 11:03:37;;;;;;;6.72;5.82;;;33.30;99.90;;;;;;5030283;28;20047;-76
2023/09/08 11:06:03;;;;;;;11.30;6.28;;;33.40;1.00;;;;;;5046030;28;20614;-75
2023/09/08 11:08:29;;;;;;;8.55;5.72;;;33.60;99.90;;;;;;5030412;28;20052;-75
2023/09/08 11:10:59;;;;;;;6.00;4.90;;;33.90;99.90;;;;;;5028704;28;20044;-77
2023/09/08 11:13:25;;;;;;;7.90;5.70;;;34.10;99.90;;;;;;5030650;28;20052;-76
2023/09/08 11:15:54;;;;;;;7.30;4.90;;;34.20;99.90;;;;;;5013822;28;20163;-76
2023/09/08 11:18:30;;;;;;;6.78;4.68;;;34.30;99.90;;;;;;5026103;28;20051;-76
2023/09/08 11:20:57;;;;;;;5.30;4.30;;;34.40;1.00;;;;;;5026121;28;20482;-76
2023/09/08 11:23:24;;;;;;;8.73;5.35;;;34.50;1.00;;;;;;5028555;28;20036;-76
2023/09/08 11:25:51;;;;;;;6.03;4.68;;;34.40;99.90;;;;;;5024294;28;20052;-76
2023/09/08 11:28:24;;;;;;;6.00;4.20;;;34.40;99.90;;;;;;5015682;28;20051;-76
2023/09/08 11:30:50;;;;;;;6.85;4.40;;;34.50;75.60;;;;;;5030344;28;20483;-75
2023/09/08 11:33:26;;;;;;;5.50;4.13;;;34.70;1.00;;;;;;5014530;28;20059;-76
2023/09/08 11:35:53;;;;;;;8.25;4.00;;;34.80;1.00;;;;;;5026930;28;20045;-76
2023/09/08 11:38:25;;;;;;;4.60;3.72;;;35.00;1.00;;;;;;5012898;28;20049;-76
2023/09/08 11:40:51;;;;;;;6.32;4.45;;;35.20;99.90;;;;;;5016096;28;20045;-76
2023/09/08 11:43:18;;;;;;;5.28;3.70;;;35.40;99.90;;;;;;5018294;28;20044;-76
2023/09/08 11:45:44;;;;;;;6.57;3.97;;;35.50;99.90;;;;;;5011278;28;20775;-75
2023/09/08 11:48:10;;;;;;;7.40;3.78;;;35.50;60.50;;;;;;5017693;28;20052;-76
2023/09/08 11:50:36;;;;;;;5.57;3.75;;;35.70;10.90;;;;;;5033313;28;20743;-76
2023/09/08 11:53:02;;;;;;;7.53;5.15;;;35.60;1.00;;;;;;5031152;28;20047;-75
2023/09/08 11:55:28;;;;;;;7.65;4.88;;;35.70;1.00;;;;;;5046939;28;20094;-76
2023/09/08 11:58:00;;;;;;;5.78;3.65;;;35.80;1.00;;;;;;5026357;28;20101;-76
2023/09/08 12:00:27;;;;;;;6.75;4.43;;;36.00;1.00;;;;;;5036918;28;20075;-76
2023/09/08 12:02:53;;;;;;;6.95;5.50;;;36.10;1.00;;;;;;5030119;28;20044;-76
2023/09/08 12:05:22;;;;;;;7.25;5.78;;;36.10;1.00;;;;;;5033686;28;20035;-76
2023/09/08 12:07:50;;;;;;;8.77;6.00;;;36.10;1.00;;;;;;5014780;28;20131;-76
2023/09/08 12:10:17;;;;;;;7.32;6.28;;;36.00;1.00;;;;;;5039250;28;20040;-76
2023/09/08 12:13:10;;;;;;;8.30;6.57;;;35.70;1.00;;;;;;5031736;28;20098;-76
2023/09/08 12:15:40;;;;;;;11.70;6.40;;;35.70;1.00;;;;;;5027673;28;20070;-76
2023/09/08 12:18:10;;;;;;;9.27;6.38;;;35.60;18.80;;;;;;5017539;28;20053;-76
2023/09/08 12:20:37;;;;;;;7.30;6.00;;;35.50;24.80;;;;;;5038063;28;20056;-76
2023/09/08 12:23:18;;;;;;;7.22;5.60;;;35.50;86.90;;;;;;5034968;28;20558;-76
2023/09/08 12:25:49;;;;;;;7.93;5.82;;;35.40;99.90;;;;;;5029309;28;20080;-75
2023/09/08 12:28:16;;;;;;;8.63;5.47;;;35.40;99.90;;;;;;5049169;28;20147;-76
2023/09/08 12:30:43;;;;;;;8.38;4.70;;;35.30;99.90;;;;;;5040114;28;20138;-76
2023/09/08 12:33:10;;;;;;;6.00;4.80;;;35.40;99.90;;;;;;5042813;28;20068;-76